Time;durP1;ratioP1;P1;durP2;ratioP2;P2;SDS_P1;SDS_P2;PMS_P1;PMS_P2;Temp;Humidity;BMP_temperature;BMP_pressure;BME280_temperature;BME280_humidity;BME280_pressure;Samples;Min_cycle;Max_cycle;Signal;HPM_P1;HPM_P2
2022/12/19 00:01:47;;;;;;;11.30;4.63;;;;;;;;;;5029492;28;20041;-78
2022/12/19 00:04:14;;;;;;;12.15;5.65;;;;;;;;;;5028682;28;20037;-78
2022/12/19 00:06:40;;;;;;;8.52;3.78;;;;;;;;;;5029664;28;20121;-78
2022/12/19 00:09:05;;;;;;;7.25;3.47;;;;;;;;;;5044584;28;20583;-77
2022/12/19 00:11:32;;;;;;;10.23;5.18;;;;;;;;;;5019291;28;20030;-78
2022/12/19 00:13:57;;;;;;;11.77;4.95;;;;;;;;;;5010064;28;20115;-78
2022/12/19 00:16:26;;;;;;;8.82;4.13;;;;;;;;;;5007217;28;20450;-78
2022/12/19 00:18:53;;;;;;;12.88;4.82;;;;;;;;;;5008561;28;20075;-78
2022/12/19 00:21:20;;;;;;;14.25;4.95;;;;;;;;;;5009226;28;20056;-78
2022/12/19 00:23:47;;;;;;;9.60;3.47;;;;;;;;;;5009477;28;20033;-78
2022/12/19 00:26:13;;;;;;;3.97;2.75;;;;;;;;;;5004665;28;20038;-78
2022/12/19 00:28:40;;;;;;;14.60;6.13;;;;;;;;;;4996605;28;20034;-78
2022/12/19 00:31:05;;;;;;;7.00;3.85;;;;;;;;;;5019670;28;20141;-78
2022/12/19 00:33:31;;;;;;;6.22;3.50;;;;;;;;;;5029475;28;20096;-78
2022/12/19 00:36:01;;;;;;;12.27;6.45;;;;;;;;;;5028481;28;20635;-78
2022/12/19 00:38:28;;;;;;;15.30;6.38;;;;;;;;;;5028366;28;20049;-78
2022/12/19 00:40:53;;;;;;;6.38;3.22;;;;;;;;;;5028151;28;20116;-78
2022/12/19 00:43:18;;;;;;;19.38;6.00;;;;;;;;;;5027904;28;20129;-78
2022/12/19 00:45:44;;;;;;;11.52;5.82;;;;;;;;;;5028926;28;20032;-78
2022/12/19 00:48:09;;;;;;;9.38;3.97;;;;;;;;;;5028384;28;20030;-78
2022/12/19 00:50:34;;;;;;;7.97;4.45;;;;;;;;;;5027588;28;20044;-78
2022/12/19 00:53:00;;;;;;;8.20;3.78;;;;;;;;;;5028866;28;20120;-78
2022/12/19 00:55:25;;;;;;;11.30;4.93;;;;;;;;;;5028274;28;20531;-78
2022/12/19 00:57:50;;;;;;;10.00;4.18;;;;;;;;;;5043076;28;20025;-77
2022/12/19 01:00:16;;;;;;;9.95;5.57;;;;;;;;;;5027259;28;20391;-77
2022/12/19 01:02:42;;;;;;;8.20;4.63;;;;;;;;;;5021880;28;20034;-79
2022/12/19 01:05:08;;;;;;;8.80;3.50;;;;;;;;;;5018759;28;20124;-78
2022/12/19 01:07:34;;;;;;;7.43;3.53;;;;;;;;;;5027935;28;20025;-78
2022/12/19 01:10:00;;;;;;;13.30;5.20;;;;;;;;;;5026355;28;20024;-78
2022/12/19 01:15:09;;;;;;;9.55;4.03;;;;;;;;;;5027984;28;20076;-78
2022/12/19 01:17:35;;;;;;;15.55;5.95;;;;;;;;;;5027787;28;20029;-78
2022/12/19 01:20:00;;;;;;;11.02;5.82;;;;;;;;;;5027741;28;20430;-78
2022/12/19 01:22:25;;;;;;;5.68;4.03;;;;;;;;;;5027808;28;20045;-78
2022/12/19 01:24:51;;;;;;;6.63;3.40;;;;;;;;;;5021891;28;20021;-78
2022/12/19 01:27:16;;;;;;;11.88;5.47;;;;;;;;;;5017978;28;20080;-78
2022/12/19 01:29:41;;;;;;;11.05;4.93;;;;;;;;;;5017156;28;20149;-78
2022/12/19 01:32:06;;;;;;;8.98;4.55;;;;;;;;;;5021461;28;20056;-78
2022/12/19 01:34:32;;;;;;;14.55;5.75;;;;;;;;;;5037424;28;20049;-78
2022/12/19 01:36:57;;;;;;;6.28;3.78;;;;;;;;;;5008587;28;20140;-78
2022/12/19 01:39:22;;;;;;;18.38;6.32;;;;;;;;;;5040026;28;20030;-78
2022/12/19 01:41:48;;;;;;;11.48;4.20;;;;;;;;;;5025944;28;20030;-78
2022/12/19 01:44:13;;;;;;;17.00;5.18;;;;;;;;;;5042209;28;20059;-78
2022/12/19 01:46:44;;;;;;;9.57;5.40;;;;;;;;;;5025385;28;20033;-78
2022/12/19 01:49:34;;;;;;;14.90;6.28;;;;;;;;;;5042049;28;20505;-78
2022/12/19 01:52:06;;;;;;;10.98;5.22;;;;;;;;;;5025553;28;20029;-78
2022/12/19 01:54:39;;;;;;;11.80;4.13;;;;;;;;;;5024855;28;20021;-76
2022/12/19 01:57:09;;;;;;;7.50;3.17;;;;;;;;;;5023799;28;20686;-78
2022/12/19 01:59:42;;;;;;;7.32;3.88;;;;;;;;;;5023604;28;20038;-78
2022/12/19 02:02:10;;;;;;;;;;;;;;;;;;5007985;28;20554;-78
2022/12/19 02:04:35;;;;;;;4.40;2.55;;;;;;;;;;5017002;28;19925;-78
2022/12/19 02:07:04;;;;;;;11.13;4.68;;;;;;;;;;5014995;28;20574;-78
2022/12/19 02:09:30;;;;;;;6.53;3.05;;;;;;;;;;5006753;28;20511;-78
2022/12/19 02:11:58;;;;;;;6.75;4.05;;;;;;;;;;5008458;28;20054;-77
2022/12/19 02:14:23;;;;;;;15.82;5.35;;;;;;;;;;5039662;28;20115;-78
2022/12/19 02:17:30;;;;;;;10.23;5.25;;;;;;;;;;5026991;28;20037;-78
2022/12/19 02:20:23;;;;;;;16.08;5.45;;;;;;;;;;5006325;28;20080;-78
2022/12/19 02:23:10;;;;;;;8.98;3.45;;;;;;;;;;5026513;28;20053;-78
2022/12/19 02:25:48;;;;;;;8.75;3.83;;;;;;;;;;5027134;28;20038;-78
2022/12/19 02:28:47;;;;;;;7.40;3.35;;;;;;;;;;5035270;28;20033;-78
2022/12/19 02:31:19;;;;;;;11.57;5.10;;;;;;;;;;5025010;28;20041;-78
2022/12/19 02:34:02;;;;;;;7.70;4.15;;;;;;;;;;5023040;28;20030;-79
2022/12/19 02:36:35;;;;;;;9.40;4.72;;;;;;;;;;5024006;28;20036;-79
2022/12/19 02:39:11;;;;;;;8.43;4.32;;;;;;;;;;5012265;28;20034;-78
2022/12/19 02:41:45;;;;;;;7.60;3.30;;;;;;;;;;5021328;28;20037;-78
2022/12/19 02:44:19;;;;;;;12.10;5.05;;;;;;;;;;5027307;28;20131;-78
2022/12/19 02:46:47;;;;;;;13.25;5.30;;;;;;;;;;5023201;28;20504;-78
2022/12/19 02:49:13;;;;;;;9.13;3.92;;;;;;;;;;5028121;28;20084;-78
2022/12/19 02:51:39;;;;;;;7.35;2.90;;;;;;;;;;5045093;28;20026;-78
2022/12/19 02:54:04;;;;;;;15.05;5.78;;;;;;;;;;5035699;28;20147;-78
2022/12/19 02:56:50;;;;;;;7.50;3.47;;;;;;;;;;5027181;28;20041;-78
2022/12/19 02:59:56;;;;;;;11.85;4.88;;;;;;;;;;5024113;28;20064;-78
2022/12/19 03:02:34;;;;;;;14.10;5.07;;;;;;;;;;5000011;28;20044;-79
2022/12/19 03:05:23;;;;;;;11.55;5.30;;;;;;;;;;5007175;28;20042;-78
2022/12/19 03:08:00;;;;;;;7.07;3.53;;;;;;;;;;5006295;28;20048;-76
2022/12/19 03:10:33;;;;;;;11.38;4.63;;;;;;;;;;5015095;28;20034;-78
2022/12/19 03:13:04;;;;;;;9.35;4.07;;;;;;;;;;5013986;28;20025;-78
2022/12/19 03:15:31;;;;;;;5.75;3.40;;;;;;;;;;5021677;28;20045;-78
2022/12/19 03:17:58;;;;;;;10.20;5.80;;;;;;;;;;5012462;28;20057;-78
2022/12/19 03:20:47;;;;;;;9.95;5.05;;;;;;;;;;5024537;28;20033;-78
2022/12/19 03:23:13;;;;;;;7.35;2.67;;;;;;;;;;5042732;28;20072;-78
2022/12/19 03:25:42;;;;;;;2.88;1.90;;;;;;;;;;5029434;28;20116;-78
2022/12/19 03:28:12;;;;;;;9.15;4.55;;;;;;;;;;5030254;28;20021;-79
2022/12/19 03:30:41;;;;;;;6.90;3.50;;;;;;;;;;5045635;28;20112;-78
2022/12/19 03:33:10;;;;;;;5.55;2.92;;;;;;;;;;5030160;28;20125;-78
2022/12/19 03:35:36;;;;;;;8.43;4.20;;;;;;;;;;5043750;28;20059;-78
2022/12/19 03:38:03;;;;;;;9.88;3.70;;;;;;;;;;5019351;28;20034;-78
2022/12/19 03:40:31;;;;;;;6.63;3.25;;;;;;;;;;5010059;28;20038;-78
2022/12/19 03:43:09;;;;;;;7.88;3.85;;;;;;;;;;5010466;28;20032;-79
2022/12/19 03:45:44;;;;;;;10.05;4.93;;;;;;;;;;5045482;28;20033;-78
2022/12/19 03:48:14;;;;;;;10.70;4.20;;;;;;;;;;5029744;28;20037;-78
2022/12/19 03:51:16;;;;;;;9.35;4.93;;;;;;;;;;5015030;28;20953;-78
2022/12/19 03:53:57;;;;;;;9.02;4.90;;;;;;;;;;5018961;28;20095;-78
2022/12/19 03:56:45;;;;;;;12.82;3.75;;;;;;;;;;5016221;28;20504;-78
2022/12/19 03:59:22;;;;;;;7.82;2.38;;;;;;;;;;5020403;28;20034;-78
2022/12/19 04:01:50;;;;;;;8.93;4.75;;;;;;;;;;5028847;28;20185;-78
2022/12/19 04:04:16;;;;;;;10.43;4.93;;;;;;;;;;5029180;28;20642;-78
2022/12/19 04:06:43;;;;;;;10.88;5.55;;;;;;;;;;5029164;28;20029;-78
2022/12/19 04:09:09;;;;;;;6.65;3.90;;;;;;;;;;5029001;28;20613;-78
2022/12/19 04:11:42;;;;;;;9.38;3.63;;;;;;;;;;5044162;28;20033;-78
2022/12/19 04:14:14;;;;;;;11.10;4.30;;;;;;;;;;5016429;28;20081;-78
2022/12/19 04:16:49;;;;;;;11.07;4.50;;;;;;;;;;5012833;28;20483;-78
2022/12/19 04:19:20;;;;;;;6.15;2.47;;;;;;;;;;5011604;28;20026;-78
2022/12/19 04:21:52;;;;;;;8.45;3.00;;;;;;;;;;5043733;28;20022;-78
2022/12/19 04:24:30;;;;;;;9.90;3.65;;;;;;;;;;5028917;28;20049;-78
2022/12/19 04:26:57;;;;;;;4.95;2.50;;;;;;;;;;5019193;28;20084;-78
2022/12/19 04:29:25;;;;;;;7.85;4.03;;;;;;;;;;5008239;28;20037;-78
2022/12/19 04:31:50;;;;;;;9.13;2.90;;;;;;;;;;5008784;28;20026;-78
2022/12/19 04:34:20;;;;;;;6.43;4.18;;;;;;;;;;5015282;28;20092;-77
2022/12/19 04:36:46;;;;;;;3.95;2.05;;;;;;;;;;5021783;28;20021;-78
2022/12/19 04:39:12;;;;;;;10.77;4.35;;;;;;;;;;5008368;28;20030;-78
2022/12/19 04:41:37;;;;;;;9.23;4.53;;;;;;;;;;5007332;28;20088;-78
2022/12/19 04:44:02;;;;;;;5.95;3.35;;;;;;;;;;5011450;28;20037;-78
2022/12/19 04:46:28;;;;;;;7.80;3.88;;;;;;;;;;5020556;28;20042;-78
2022/12/19 04:48:53;;;;;;;6.47;2.83;;;;;;;;;;5028006;28;20025;-77
2022/12/19 04:51:18;;;;;;;4.43;2.97;;;;;;;;;;5027763;28;20021;-78
2022/12/19 04:53:44;;;;;;;10.32;4.40;;;;;;;;;;5023516;28;20115;-77
2022/12/19 04:56:09;;;;;;;7.57;3.33;;;;;;;;;;5029019;28;20036;-79
2022/12/19 04:58:34;;;;;;;7.95;4.28;;;;;;;;;;5028586;28;20423;-78
2022/12/19 05:01:01;;;;;;;13.02;4.00;;;;;;;;;;5029006;28;20052;-78
2022/12/19 05:03:27;;;;;;;10.30;3.55;;;;;;;;;;5028858;28;20049;-78
2022/12/19 05:05:52;;;;;;;6.45;3.55;;;;;;;;;;5026710;28;20360;-79
2022/12/19 05:08:17;;;;;;;8.65;3.75;;;;;;;;;;5028864;28;20037;-79
2022/12/19 05:10:43;;;;;;;7.18;3.75;;;;;;;;;;5026967;28;20030;-79
2022/12/19 05:13:08;;;;;;;7.93;3.20;;;;;;;;;;5026097;28;20558;-79
2022/12/19 05:15:33;;;;;;;7.53;4.53;;;;;;;;;;5028633;28;20519;-79
2022/12/19 05:17:59;;;;;;;4.72;2.10;;;;;;;;;;5027997;28;20033;-79
2022/12/19 05:20:24;;;;;;;5.85;3.58;;;;;;;;;;5027463;28;20519;-78
2022/12/19 05:22:49;;;;;;;9.38;4.60;;;;;;;;;;5036250;28;20040;-79
2022/12/19 05:25:15;;;;;;;7.25;3.80;;;;;;;;;;5047773;28;20032;-79
2022/12/19 05:27:40;;;;;;;8.63;3.67;;;;;;;;;;5036599;28;20022;-79
2022/12/19 05:30:06;;;;;;;8.15;4.15;;;;;;;;;;5027351;28;20526;-78
2022/12/19 05:32:32;;;;;;;9.13;4.38;;;;;;;;;;5027768;28;20032;-79
2022/12/19 05:34:58;;;;;;;6.75;3.17;;;;;;;;;;5026769;28;20144;-78
2022/12/19 05:37:23;;;;;;;10.80;4.25;;;;;;;;;;5015947;28;20125;-79
2022/12/19 05:39:48;;;;;;;7.05;3.08;;;;;;;;;;5022456;28;20037;-78
2022/12/19 05:42:14;;;;;;;5.15;3.35;;;;;;;;;;5008290;28;20048;-79
2022/12/19 05:44:39;;;;;;;6.57;3.67;;;;;;;;;;5001964;28;20467;-79
2022/12/19 05:47:04;;;;;;;5.07;2.85;;;;;;;;;;4985754;28;20034;-79
2022/12/19 05:49:30;;;;;;;6.15;3.33;;;;;;;;;;5007852;28;20117;-78
2022/12/19 05:51:55;;;;;;;8.10;3.40;;;;;;;;;;5042408;28;20021;-78
2022/12/19 05:54:20;;;;;;;4.65;3.13;;;;;;;;;;5027536;28;20021;-79
2022/12/19 05:56:46;;;;;;;7.35;3.45;;;;;;;;;;5027185;28;20026;-79
2022/12/19 05:59:11;;;;;;;4.90;2.95;;;;;;;;;;5022087;28;20080;-78
2022/12/19 06:01:36;;;;;;;5.97;2.63;;;;;;;;;;5024159;28;20084;-79
2022/12/19 06:04:03;;;;;;;10.45;4.43;;;;;;;;;;5007114;28;20100;-78
2022/12/19 06:06:28;;;;;;;11.40;5.22;;;;;;;;;;5015319;28;20017;-79
2022/12/19 06:08:58;;;;;;;6.53;3.33;;;;;;;;;;5026200;28;20087;-79
2022/12/19 06:11:25;;;;;;;6.00;3.15;;;;;;;;;;5027230;28;20154;-78
2022/12/19 06:13:51;;;;;;;6.90;3.22;;;;;;;;;;5026814;28;20076;-79
2022/12/19 06:16:18;;;;;;;3.70;2.25;;;;;;;;;;5025460;28;20400;-78
2022/12/19 06:18:44;;;;;;;6.13;2.65;;;;;;;;;;5027002;28;20037;-78
2022/12/19 06:21:15;;;;;;;7.20;3.38;;;;;;;;;;5041732;28;20124;-78
2022/12/19 06:23:42;;;;;;;8.98;4.43;;;;;;;;;;5022419;28;20034;-79
2022/12/19 06:26:10;;;;;;;7.55;2.40;;;;;;;;;;5028146;28;20667;-79
2022/12/19 06:28:35;;;;;;;5.90;3.17;;;;;;;;;;5046639;28;20526;-79
2022/12/19 06:31:03;;;;;;;9.88;3.95;;;;;;;;;;5045191;28;20017;-78
2022/12/19 06:33:29;;;;;;;7.68;3.20;;;;;;;;;;5046847;28;20496;-79
2022/12/19 06:36:04;;;;;;;8.70;4.07;;;;;;;;;;5045118;28;20117;-77
2022/12/19 06:38:30;;;;;;;6.60;2.97;;;;;;;;;;5019652;28;20410;-77
2022/12/19 06:43:40;;;;;;;10.23;4.30;;;;;;;;;;5026391;28;20054;-77
2022/12/19 06:46:05;;;;;;;7.85;3.67;;;;;;;;;;5026668;28;20025;-77
2022/12/19 06:48:31;;;;;;;5.20;3.05;;;;;;;;;;5027153;28;20016;-76
2022/12/19 06:50:56;;;;;;;6.40;3.03;;;;;;;;;;5023033;28;20053;-77
2022/12/19 06:53:22;;;;;;;9.18;3.63;;;;;;;;;;5039781;28;20029;-76
2022/12/19 06:55:50;;;;;;;6.65;3.53;;;;;;;;;;5023665;28;20874;-77
2022/12/19 06:58:15;;;;;;;11.55;5.20;;;;;;;;;;5032199;28;20037;-77
2022/12/19 07:00:41;;;;;;;6.90;3.78;;;;;;;;;;5036539;28;20032;-77
2022/12/19 07:03:10;;;;;;;4.40;3.05;;;;;;;;;;5035276;28;20034;-76
2022/12/19 07:05:35;;;;;;;6.22;3.50;;;;;;;;;;5026964;28;20063;-79
2022/12/19 07:08:02;;;;;;;3.55;2.53;;;;;;;;;;5029770;28;20156;-79
2022/12/19 07:10:27;;;;;;;6.57;2.75;;;;;;;;;;5021576;28;20038;-75
2022/12/19 07:12:53;;;;;;;5.90;3.25;;;;;;;;;;5018893;28;20040;-75
2022/12/19 07:15:18;;;;;;;3.35;2.28;;;;;;;;;;5021377;28;20184;-75
2022/12/19 07:17:43;;;;;;;6.88;3.42;;;;;;;;;;5024786;28;20026;-75
2022/12/19 07:20:09;;;;;;;6.65;3.08;;;;;;;;;;5015156;28;20037;-76
2022/12/19 07:22:35;;;;;;;5.97;2.95;;;;;;;;;;5019334;28;20046;-75
2022/12/19 07:25:02;;;;;;;4.38;2.92;;;;;;;;;;5035946;28;20438;-75
2022/12/19 07:27:28;;;;;;;6.20;3.58;;;;;;;;;;5017873;28;20029;-75
2022/12/19 07:29:53;;;;;;;7.40;3.78;;;;;;;;;;5023111;28;20088;-75
2022/12/19 07:32:19;;;;;;;4.78;2.40;;;;;;;;;;5010687;28;20069;-75
2022/12/19 07:34:45;;;;;;;6.30;3.05;;;;;;;;;;5015332;28;20460;-75
2022/12/19 07:37:10;;;;;;;6.13;2.92;;;;;;;;;;5009236;28;20037;-75
2022/12/19 07:39:35;;;;;;;5.68;2.35;;;;;;;;;;5009533;28;20072;-75
2022/12/19 07:42:01;;;;;;;4.15;2.72;;;;;;;;;;5017453;28;20029;-76
2022/12/19 07:44:26;;;;;;;5.18;2.60;;;;;;;;;;5017076;28;20046;-75
2022/12/19 07:46:51;;;;;;;5.60;2.85;;;;;;;;;;5012987;28;20045;-75
2022/12/19 07:49:17;;;;;;;6.30;2.75;;;;;;;;;;5011434;28;20351;-75
2022/12/19 07:51:42;;;;;;;6.00;3.03;;;;;;;;;;5016314;28;20044;-75
2022/12/19 07:54:07;;;;;;;8.48;3.15;;;;;;;;;;4996671;28;20571;-76
2022/12/19 07:56:32;;;;;;;4.40;2.65;;;;;;;;;;5000676;28;20127;-75
2022/12/19 07:58:58;;;;;;;5.13;2.50;;;;;;;;;;5008964;28;20038;-75
2022/12/19 08:01:23;;;;;;;5.03;3.08;;;;;;;;;;5019462;28;20045;-76
2022/12/19 08:03:48;;;;;;;5.22;2.50;;;;;;;;;;5025080;28;20485;-75
2022/12/19 08:06:14;;;;;;;5.22;2.63;;;;;;;;;;5028709;28;20032;-76
2022/12/19 08:08:40;;;;;;;5.68;2.78;;;;;;;;;;5021332;28;20044;-76
2022/12/19 08:11:08;;;;;;;6.45;2.55;;;;;;;;;;5021198;28;20084;-76
2022/12/19 08:13:34;;;;;;;8.55;3.78;;;;;;;;;;5008129;28;20034;-76
2022/12/19 08:16:00;;;;;;;8.48;2.97;;;;;;;;;;5009477;28;20033;-76
2022/12/19 08:18:25;;;;;;;4.47;2.88;;;;;;;;;;5032624;28;20121;-76
2022/12/19 08:20:50;;;;;;;4.07;2.15;;;;;;;;;;5025452;28;20596;-75
2022/12/19 08:23:16;;;;;;;6.70;3.17;;;;;;;;;;5027786;28;20063;-76
2022/12/19 08:25:41;;;;;;;3.90;2.20;;;;;;;;;;5035499;28;20431;-75
2022/12/19 08:28:06;;;;;;;3.88;2.45;;;;;;;;;;5015055;28;20026;-75
2022/12/19 08:30:32;;;;;;;3.42;2.38;;;;;;;;;;4998922;28;20560;-75
2022/12/19 08:32:57;;;;;;;5.57;2.35;;;;;;;;;;5003911;28;20088;-75
2022/12/19 08:35:22;;;;;;;9.80;3.00;;;;;;;;;;5008374;28;20515;-75
2022/12/19 08:37:48;;;;;;;5.65;2.80;;;;;;;;;;5006065;28;20045;-75
2022/12/19 08:40:13;;;;;;;7.07;3.72;;;;;;;;;;4995575;28;20034;-76
2022/12/19 08:42:38;;;;;;;4.53;2.90;;;;;;;;;;4986881;28;20057;-76
2022/12/19 08:45:04;;;;;;;5.32;2.85;;;;;;;;;;5009166;28;20561;-75
2022/12/19 08:47:29;;;;;;;4.35;2.10;;;;;;;;;;5009173;28;20041;-76
2022/12/19 08:49:55;;;;;;;5.00;2.75;;;;;;;;;;5024742;28;20111;-76
2022/12/19 08:52:21;;;;;;;7.40;2.75;;;;;;;;;;5026224;28;20041;-76
2022/12/19 08:54:46;;;;;;;5.78;3.25;;;;;;;;;;5025225;28;20084;-75
2022/12/19 08:57:11;;;;;;;7.53;2.65;;;;;;;;;;5010309;28;20046;-75
2022/12/19 08:59:37;;;;;;;5.88;3.00;;;;;;;;;;5021506;28;20042;-75
2022/12/19 09:02:02;;;;;;;4.05;2.65;;;;;;;;;;5010372;28;20045;-75
2022/12/19 09:04:28;;;;;;;6.55;3.30;;;;;;;;;;5008155;28;20044;-75
2022/12/19 09:06:53;;;;;;;4.43;2.33;;;;;;;;;;5005328;28;20041;-78
2022/12/19 09:09:18;;;;;;;8.75;3.25;;;;;;;;;;5016351;28;20156;-76
2022/12/19 09:11:44;;;;;;;3.03;1.95;;;;;;;;;;5016136;28;20026;-75
2022/12/19 09:14:09;;;;;;;4.65;2.97;;;;;;;;;;5019496;28;20056;-76
2022/12/19 09:16:34;;;;;;;6.65;3.53;;;;;;;;;;5021511;28;20107;-75
2022/12/19 09:19:00;;;;;;;6.20;3.10;;;;;;;;;;5020755;28;20100;-76
2022/12/19 09:21:30;;;;;;;9.70;2.63;;;;;;;;;;5025725;28;20108;-76
2022/12/19 09:23:58;;;;;;;1.85;1.45;;;;;;;;;;5020321;28;20085;-74
2022/12/19 09:26:25;;;;;;;7.38;3.42;;;;;;;;;;5014845;28;20111;-74
2022/12/19 09:28:51;;;;;;;6.63;3.15;;;;;;;;;;5021891;28;20073;-73
2022/12/19 09:31:19;;;;;;;4.78;2.75;;;;;;;;;;5023452;28;20045;-74
2022/12/19 09:33:45;;;;;;;3.22;1.80;;;;;;;;;;5033986;28;20024;-73
2022/12/19 09:36:19;;;;;;;3.85;2.60;;;;;;;;;;5008535;28;20162;-74
2022/12/19 09:38:44;;;;;;;7.88;3.42;;;;;;;;;;5015658;28;20034;-73
2022/12/19 09:41:36;;;;;;;10.65;3.85;;;;;;;;;;5027591;28;20418;-73
2022/12/19 09:44:22;;;;;;;8.60;3.22;;;;;;;;;;5007483;28;20049;-74
2022/12/19 09:46:51;;;;;;;5.78;3.03;;;;;;;;;;5001877;28;20050;-74
2022/12/19 09:49:21;;;;;;;5.63;3.00;;;;;;;;;;4990576;28;20040;-74
2022/12/19 09:51:46;;;;;;;3.08;1.98;;;;;;;;;;5007290;28;20711;-74
2022/12/19 09:54:33;;;;;;;5.43;3.25;;;;;;;;;;5005799;28;20129;-74
2022/12/19 09:57:03;;;;;;;3.60;1.88;;;;;;;;;;5027738;28;20029;-74
2022/12/19 09:59:55;;;;;;;5.57;2.63;;;;;;;;;;5019428;28;20037;-74
2022/12/19 10:02:23;;;;;;;2.40;1.55;;;;;;;;;;5040959;28;20542;-73
2022/12/19 10:04:53;;;;;;;6.28;2.88;;;;;;;;;;5020738;28;20037;-74
2022/12/19 10:07:20;;;;;;;3.65;2.55;;;;;;;;;;5021114;28;20037;-74
2022/12/19 10:09:46;;;;;;;7.68;3.47;;;;;;;;;;5026944;28;20112;-74
2022/12/19 10:12:36;;;;;;;5.00;2.70;;;;;;;;;;5025599;28;20136;-74
2022/12/19 10:15:20;;;;;;;10.10;4.95;;;;;;;;;;5040261;28;20537;-74
2022/12/19 10:18:00;;;;;;;13.00;5.93;;;;;;;;;;5025500;28;20041;-74
2022/12/19 10:20:29;;;;;;;10.13;4.00;;;;;;;;;;5024915;28;20041;-74
2022/12/19 10:23:03;;;;;;;9.70;3.60;;;;;;;;;;5040374;28;20034;-74
2022/12/19 10:25:40;;;;;;;;;;;;;;;;;;5025442;28;20068;-72
2022/12/19 10:28:14;;;;;;;7.30;3.35;;;;;;;;;;5022558;28;19913;-73
2022/12/19 10:30:58;;;;;;;4.70;2.42;;;;;;;;;;5024141;28;20032;-74
2022/12/19 10:33:30;;;;;;;5.82;3.17;;;;;;;;;;5024886;28;20048;-74
2022/12/19 10:36:00;;;;;;;8.57;4.28;;;;;;;;;;5003909;28;20108;-74
2022/12/19 10:38:34;;;;;;;10.10;4.60;;;;;;;;;;5005244;28;20049;-74
2022/12/19 10:41:09;;;;;;;11.43;4.07;;;;;;;;;;5012391;28;20071;-73
2022/12/19 10:44:06;;;;;;;6.97;3.70;;;;;;;;;;5012909;28;20072;-74
2022/12/19 10:46:39;;;;;;;6.38;2.80;;;;;;;;;;5012873;28;20195;-74
2022/12/19 10:49:25;;;;;;;15.38;5.28;;;;;;;;;;5009637;28;20032;-73
2022/12/19 10:52:08;;;;;;;11.38;5.13;;;;;;;;;;5025784;28;20037;-74
2022/12/19 10:54:36;;;;;;;8.38;3.70;;;;;;;;;;5004176;28;20021;-74
2022/12/19 10:57:20;;;;;;;7.22;3.10;;;;;;;;;;5005033;28;20041;-74
2022/12/19 11:00:05;;;;;;;6.30;3.08;;;;;;;;;;5005708;28;20088;-74
2022/12/19 11:02:37;;;;;;;6.63;3.33;;;;;;;;;;5013773;28;20038;-73
2022/12/19 11:05:04;;;;;;;4.80;2.92;;;;;;;;;;5016826;28;20101;-74
2022/12/19 11:07:30;;;;;;;5.45;2.50;;;;;;;;;;5015929;28;20045;-75
2022/12/19 11:09:55;;;;;;;7.43;2.90;;;;;;;;;;5021890;28;20014;-73
2022/12/19 11:12:24;;;;;;;6.05;2.50;;;;;;;;;;5008728;28;20142;-76
2022/12/19 11:15:22;;;;;;;6.22;3.20;;;;;;;;;;5007689;28;20076;-75
2022/12/19 11:17:48;;;;;;;6.93;2.47;;;;;;;;;;4983186;28;20046;-74
2022/12/19 11:20:19;;;;;;;4.45;2.15;;;;;;;;;;5000893;28;20609;-74
2022/12/19 11:22:55;;;;;;;3.75;2.10;;;;;;;;;;4993343;28;20056;-75
2022/12/19 11:25:29;;;;;;;2.35;1.45;;;;;;;;;;5004636;28;20717;-75
2022/12/19 11:27:54;;;;;;;6.43;2.88;;;;;;;;;;5031893;28;20116;-75
2022/12/19 11:30:23;;;;;;;4.75;1.75;;;;;;;;;;5034689;28;20100;-75
2022/12/19 11:33:07;;;;;;;2.75;1.60;;;;;;;;;;5005447;28;20412;-75
2022/12/19 11:35:46;;;;;;;3.13;2.20;;;;;;;;;;5027624;28;20041;-75
2022/12/19 11:38:14;;;;;;;3.28;2.03;;;;;;;;;;5003529;28;20522;-75
2022/12/19 11:40:55;;;;;;;2.97;1.58;;;;;;;;;;5002417;28;20073;-75
2022/12/19 11:43:32;;;;;;;3.80;1.95;;;;;;;;;;4991135;28;20052;-74
2022/12/19 11:46:22;;;;;;;2.92;1.80;;;;;;;;;;5006236;28;20037;-74
2022/12/19 11:49:27;;;;;;;4.55;2.67;;;;;;;;;;5017923;28;20162;-74
2022/12/19 11:52:19;;;;;;;6.20;2.33;;;;;;;;;;5015311;28;20128;-74
2022/12/19 11:55:21;;;;;;;4.30;2.60;;;;;;;;;;5006701;28;20056;-74
2022/12/19 11:57:47;;;;;;;2.78;1.67;;;;;;;;;;5028356;28;20522;-74
2022/12/19 12:00:16;;;;;;;4.35;2.30;;;;;;;;;;5029315;28;20037;-74
2022/12/19 12:03:12;;;;;;;4.85;2.45;;;;;;;;;;5025706;28;20045;-74
2022/12/19 12:05:44;;;;;;;4.57;2.45;;;;;;;;;;5027510;28;20049;-74
2022/12/19 12:08:43;;;;;;;2.75;1.80;;;;;;;;;;5026412;28;20041;-75
2022/12/19 12:11:23;;;;;;;5.65;2.38;;;;;;;;;;5022753;28;20045;-74
2022/12/19 12:13:54;;;;;;;3.75;2.03;;;;;;;;;;5008352;28;20184;-74
2022/12/19 12:16:25;;;;;;;5.68;2.22;;;;;;;;;;5003862;28;20125;-74
2022/12/19 12:19:15;;;;;;;4.00;2.42;;;;;;;;;;4987353;28;20064;-74
2022/12/19 12:22:04;;;;;;;6.47;2.70;;;;;;;;;;5023385;28;20099;-74
2022/12/19 12:24:55;;;;;;;6.47;2.92;;;;;;;;;;5042632;28;20118;-74
2022/12/19 12:27:37;;;;;;;4.07;2.50;;;;;;;;;;5022010;28;20564;-74
2022/12/19 12:30:09;;;;;;;4.25;1.83;;;;;;;;;;5020238;28;20030;-74
2022/12/19 12:33:10;;;;;;;5.20;2.25;;;;;;;;;;5007855;28;20054;-74
2022/12/19 12:35:44;;;;;;;8.02;2.50;;;;;;;;;;5024036;28;20190;-74
2022/12/19 12:38:27;;;;;;;4.35;2.55;;;;;;;;;;5015411;28;20069;-74
2022/12/19 12:42:02;;;;;;;2.97;1.85;;;;;;;;;;5008606;28;20091;-74
2022/12/19 12:44:11;;;;;;;5.00;2.78;;;;;;;;;;4999916;28;20049;-74
2022/12/19 12:46:42;;;;;;;3.17;2.03;;;;;;;;;;5023381;28;20042;-74
2022/12/19 12:49:34;;;;;;;4.15;2.30;;;;;;;;;;5006312;28;20047;-74
2022/12/19 12:52:03;;;;;;;3.92;2.00;;;;;;;;;;5024135;28;20100;-74
2022/12/19 12:54:33;;;;;;;2.55;1.70;;;;;;;;;;5008480;28;20434;-74
2022/12/19 12:56:58;;;;;;;3.67;1.98;;;;;;;;;;5010919;28;20164;-74
2022/12/19 12:59:27;;;;;;;3.17;1.90;;;;;;;;;;5020514;28;20121;-74
2022/12/19 13:02:17;;;;;;;5.93;2.30;;;;;;;;;;5012644;28;20065;-73
2022/12/19 13:04:56;;;;;;;8.25;2.30;;;;;;;;;;5027633;28;20060;-73
2022/12/19 13:07:49;;;;;;;2.92;1.88;;;;;;;;;;5016908;28;20076;-73
2022/12/19 13:10:21;;;;;;;4.25;1.92;;;;;;;;;;5028256;28;20617;-73
2022/12/19 13:13:00;;;;;;;3.60;2.00;;;;;;;;;;5013354;28;20205;-73
2022/12/19 13:15:28;;;;;;;3.70;2.30;;;;;;;;;;5006670;28;20462;-73
2022/12/19 13:17:53;;;;;;;4.05;2.22;;;;;;;;;;5016498;28;20038;-73
2022/12/19 13:20:28;;;;;;;2.40;1.65;;;;;;;;;;5011886;28;20439;-73
2022/12/19 13:22:57;;;;;;;2.65;1.65;;;;;;;;;;5020053;28;20033;-74
2022/12/19 13:25:25;;;;;;;3.92;1.55;;;;;;;;;;5029375;28;20029;-73
2022/12/19 13:27:56;;;;;;;4.47;1.92;;;;;;;;;;5014608;28;20029;-74
2022/12/19 13:30:21;;;;;;;4.13;2.05;;;;;;;;;;5014302;28;20592;-74
2022/12/19 13:32:47;;;;;;;4.28;2.22;;;;;;;;;;5007975;28;20503;-74
2022/12/19 13:35:12;;;;;;;2.55;1.80;;;;;;;;;;5001799;28;20056;-74
2022/12/19 13:37:39;;;;;;;3.65;2.00;;;;;;;;;;5024534;28;20049;-74
2022/12/19 13:40:28;;;;;;;3.28;2.03;;;;;;;;;;5010591;28;20032;-74
2022/12/19 13:45:53;;;;;;;3.55;2.10;;;;;;;;;;5011635;28;20123;-74
2022/12/19 13:48:31;;;;;;;2.08;1.40;;;;;;;;;;5009252;28;20361;-74
2022/12/19 13:50:59;;;;;;;3.08;2.20;;;;;;;;;;5016253;28;20048;-74
2022/12/19 13:53:27;;;;;;;2.33;1.55;;;;;;;;;;5013576;28;20041;-73
2022/12/19 13:55:54;;;;;;;2.75;1.60;;;;;;;;;;5018286;28;20444;-74
2022/12/19 13:58:26;;;;;;;3.58;1.92;;;;;;;;;;5011425;28;20021;-74
2022/12/19 14:00:55;;;;;;;3.25;1.70;;;;;;;;;;5016109;28;20045;-73
2022/12/19 14:03:31;;;;;;;6.47;2.35;;;;;;;;;;5008455;28;20038;-74
2022/12/19 14:06:02;;;;;;;8.07;2.90;;;;;;;;;;4999348;28;20096;-74
2022/12/19 14:08:28;;;;;;;4.93;2.03;;;;;;;;;;5019625;28;20041;-74
2022/12/19 14:10:53;;;;;;;20.75;5.68;;;;;;;;;;5028639;28;20033;-74
2022/12/19 14:16:06;;;;;;;19.73;6.95;;;;;;;;;;4997036;28;20660;-74
2022/12/19 14:18:32;;;;;;;33.55;8.68;;;;;;;;;;5014205;28;20041;-74
2022/12/19 14:21:25;;;;;;;8.68;3.80;;;;;;;;;;5006114;28;20042;-74
2022/12/19 14:23:51;;;;;;;5.65;2.90;;;;;;;;;;5014388;28;20037;-74
2022/12/19 14:26:27;;;;;;;3.65;2.03;;;;;;;;;;5015709;28;20048;-73
2022/12/19 14:29:03;;;;;;;9.98;4.38;;;;;;;;;;5018186;28;20308;-74
2022/12/19 14:31:29;;;;;;;4.45;2.35;;;;;;;;;;5025051;28;20030;-74
2022/12/19 14:33:55;;;;;;;5.43;2.50;;;;;;;;;;5018244;28;20032;-74
2022/12/19 14:36:31;;;;;;;7.30;2.92;;;;;;;;;;5011008;28;20041;-74
2022/12/19 14:38:57;;;;;;;4.90;2.58;;;;;;;;;;5004164;28;20041;-74
2022/12/19 14:43:37;;;;;;;3.42;2.22;;;;;;;;;;5003699;28;20518;-74
2022/12/19 14:44:15;;;;;;;4.47;2.03;;;;;;;;;;5005359;28;20046;-74
2022/12/19 14:46:41;;;;;;;3.83;1.73;;;;;;;;;;5004649;28;20087;-74
2022/12/19 14:49:33;;;;;;;4.90;2.20;;;;;;;;;;5033088;28;20026;-74
2022/12/19 14:52:02;;;;;;;4.25;2.03;;;;;;;;;;5010471;28;20131;-74
2022/12/19 14:54:27;;;;;;;1.63;1.27;;;;;;;;;;5022015;28;20041;-74
2022/12/19 14:56:54;;;;;;;2.13;1.50;;;;;;;;;;5012824;28;20034;-74
2022/12/19 14:59:29;;;;;;;3.15;1.85;;;;;;;;;;5028700;28;20049;-74
2022/12/19 15:02:05;;;;;;;4.00;2.25;;;;;;;;;;5021060;28;20037;-74
2022/12/19 15:04:35;;;;;;;4.32;2.30;;;;;;;;;;5025436;28;20037;-74
2022/12/19 15:07:04;;;;;;;4.45;2.45;;;;;;;;;;5026164;28;20034;-74
2022/12/19 15:09:34;;;;;;;6.18;2.22;;;;;;;;;;5023100;28;20037;-74
2022/12/19 15:15:21;;;;;;;3.10;1.70;;;;;;;;;;5022818;28;20059;-74
2022/12/19 15:17:49;;;;;;;3.65;2.45;;;;;;;;;;5012019;28;20041;-75